createdAt,value
2018-04-13T00:00:58.221Z,49.87
2018-04-13T00:03:25.737Z,50.87
2018-04-13T00:05:53.296Z,49.43
2018-04-13T00:08:20.820Z,49.90
2018-04-13T00:10:49.125Z,51.00
2018-04-13T00:13:16.688Z,49.80
2018-04-13T00:15:44.247Z,60.07
2018-04-13T00:18:12.521Z,50.67
2018-04-13T00:20:40.076Z,58.93
2018-04-13T00:23:07.632Z,48.80
2018-04-13T00:25:35.181Z,50.87
2018-04-13T00:28:02.744Z,66.17
2018-04-13T00:30:30.288Z,67.07
2018-04-13T00:32:58.601Z,60.60
2018-04-13T00:35:26.129Z,57.47
2018-04-13T00:37:54.444Z,60.77
2018-04-13T00:40:22.739Z,57.50
2018-04-13T00:42:51.063Z,61.17
2018-04-13T00:45:18.576Z,61.10
2018-04-13T00:47:46.111Z,60.23
2018-04-13T00:50:13.640Z,59.43
2018-04-13T00:52:41.959Z,62.07
2018-04-13T00:55:09.477Z,64.80
2018-04-13T00:57:37.004Z,71.07
2018-04-13T01:00:04.529Z,66.47
2018-04-13T01:02:32.095Z,69.77
2018-04-13T01:04:59.640Z,55.47
2018-04-13T01:07:27.668Z,64.10
2018-04-13T01:09:55.963Z,63.67
2018-04-13T01:12:24.248Z,64.50
2018-04-13T01:14:52.532Z,62.00
2018-04-13T01:17:20.850Z,73.27
2018-04-13T01:19:48.385Z,66.80
2018-04-13T01:22:15.961Z,65.33
2018-04-13T01:24:44.296Z,68.07
2018-04-13T01:27:11.871Z,66.73
2018-04-13T01:29:39.407Z,70.87
2018-04-13T01:32:07.712Z,76.07
2018-04-13T01:34:35.238Z,85.33
2018-04-13T01:37:02.799Z,74.60
2018-04-13T01:39:30.377Z,64.87
2018-04-13T01:41:57.906Z,71.63
2018-04-13T01:44:25.443Z,68.37
2018-04-13T01:46:53.727Z,66.00
2018-04-13T01:49:22.050Z,68.63
2018-04-13T01:51:49.551Z,57.60
2018-04-13T01:54:17.079Z,62.97
2018-04-13T01:56:45.362Z,58.20
2018-04-13T01:59:13.657Z,59.67
2018-04-13T02:01:41.946Z,60.30
2018-04-13T02:04:10.247Z,65.30
2018-04-13T02:06:37.932Z,71.07
2018-04-13T02:09:06.215Z,73.80
2018-04-13T02:11:33.735Z,72.63
2018-04-13T02:14:01.271Z,70.37
2018-04-13T02:16:28.784Z,72.93
2018-04-13T02:18:56.384Z,71.37
2018-04-13T02:21:23.870Z,65.00
2018-04-13T02:23:51.391Z,67.73
2018-04-13T02:26:18.899Z,71.03
2018-04-13T02:28:47.191Z,63.50
2018-04-13T02:31:15.469Z,66.27
2018-04-13T02:33:43.764Z,66.87
2018-04-13T02:36:12.059Z,65.60
2018-04-13T02:38:40.372Z,64.63
2018-04-13T02:41:07.928Z,64.90
2018-04-13T02:43:35.443Z,64.40
2018-04-13T02:46:02.951Z,66.37
2018-04-13T02:48:31.254Z,71.60
2018-04-13T02:50:59.569Z,64.17
2018-04-13T02:53:27.106Z,67.20
2018-04-13T02:55:55.410Z,65.97
2018-04-13T02:58:22.919Z,56.00
2018-04-13T03:00:50.461Z,60.10
2018-04-13T03:03:17.963Z,56.50
2018-04-13T03:05:45.496Z,63.40
2018-04-13T03:08:13.004Z,62.53
2018-04-13T03:10:40.547Z,58.17
2018-04-13T03:13:08.794Z,62.10
2018-04-13T03:15:36.399Z,59.10
2018-04-13T03:18:03.902Z,53.63
2018-04-13T03:20:31.430Z,57.60
2018-04-13T03:22:59.727Z,64.70
2018-04-13T03:25:27.645Z,66.10
2018-04-13T03:27:55.203Z,66.20
2018-04-13T03:30:22.736Z,75.60
2018-04-13T03:32:51.026Z,64.50
2018-04-13T03:35:19.347Z,67.83
2018-04-13T03:37:46.857Z,65.47
2018-04-13T03:40:14.394Z,76.50
2018-04-13T03:42:41.933Z,78.03
2018-04-13T03:45:10.233Z,73.97
2018-04-13T03:47:38.523Z,135.10
2018-04-13T03:50:06.821Z,137.97
2018-04-13T03:52:34.326Z,106.60
2018-04-13T03:55:01.854Z,124.73
2018-04-13T03:57:30.164Z,158.67
2018-04-13T03:59:57.720Z,120.33
2018-04-13T04:02:25.260Z,139.97
2018-04-13T04:04:52.805Z,156.90
2018-04-13T04:07:20.348Z,155.30
2018-04-13T04:09:47.865Z,188.23
2018-04-13T04:12:15.420Z,153.63
2018-04-13T04:14:42.985Z,161.67
2018-04-13T04:17:10.546Z,163.77
2018-04-13T04:19:53.870Z,173.77
2018-04-13T04:22:33.200Z,136.23
2018-04-13T04:25:13.609Z,139.13
2018-04-13T04:27:41.168Z,153.30
2018-04-13T04:30:08.722Z,87.10
2018-04-13T04:32:37.147Z,173.10
2018-04-13T04:35:04.797Z,135.83
2018-04-13T04:37:32.509Z,116.90
2018-04-13T04:40:00.108Z,114.50
2018-04-13T04:42:27.750Z,122.40
2018-04-13T04:44:55.298Z,114.07
2018-04-13T04:47:22.824Z,149.87
2018-04-13T04:49:50.442Z,116.03
2018-04-13T04:52:18.042Z,128.23
2018-04-13T04:54:45.596Z,155.40
2018-04-13T04:57:13.125Z,158.63
2018-04-13T04:59:40.697Z,84.07
2018-04-13T05:02:08.194Z,158.73
2018-04-13T05:04:36.488Z,104.30
2018-04-13T05:07:04.020Z,113.03
2018-04-13T05:09:31.676Z,99.97
2018-04-13T05:11:59.293Z,112.23
2018-04-13T05:14:27.019Z,126.90
2018-04-13T05:16:54.529Z,110.03
2018-04-13T05:19:22.060Z,82.17
2018-04-13T05:21:49.594Z,119.27
2018-04-13T05:24:17.964Z,77.70
2018-04-13T05:26:46.254Z,80.80
2018-04-13T05:29:13.819Z,76.83
2018-04-13T05:31:41.335Z,73.33
2018-04-13T05:34:08.906Z,100.93
2018-04-13T05:36:36.500Z,90.60
2018-04-13T05:39:04.045Z,101.03
2018-04-13T05:41:31.658Z,74.20
2018-04-13T05:43:59.205Z,78.70
2018-04-13T05:46:26.733Z,103.73
2018-04-13T05:48:55.080Z,101.40
2018-04-13T05:51:22.605Z,87.30
2018-04-13T05:53:50.908Z,97.37
2018-04-13T05:56:18.420Z,96.20
2018-04-13T05:58:45.941Z,86.33
2018-04-13T06:01:14.257Z,75.13
2018-04-13T06:03:41.777Z,75.27
2018-04-13T06:06:10.109Z,66.83
2018-04-13T06:08:37.681Z,67.20
2018-04-13T06:11:05.222Z,64.53
2018-04-13T06:13:33.540Z,71.47
2018-04-13T06:16:01.125Z,65.47
2018-04-13T06:18:28.695Z,61.23
2018-04-13T06:20:56.243Z,59.47
2018-04-13T06:23:24.561Z,61.10
2018-04-13T06:25:52.130Z,61.20
2018-04-13T06:28:19.646Z,62.10
2018-04-13T06:30:47.183Z,70.70
2018-04-13T06:33:14.732Z,69.33
2018-04-13T06:35:42.273Z,65.10
2018-04-13T06:38:11.304Z,68.47
2018-04-13T06:40:38.902Z,59.00
2018-04-13T06:43:06.596Z,59.30
2018-04-13T06:45:34.346Z,59.90
2018-04-13T06:48:01.913Z,59.37
2018-04-13T06:50:29.490Z,54.50
2018-04-13T06:52:57.013Z,55.70
2018-04-13T06:55:24.543Z,58.97
2018-04-13T06:57:52.053Z,57.83
2018-04-13T07:00:19.577Z,57.13
2018-04-13T07:02:47.136Z,53.90
2018-04-13T07:05:14.757Z,57.30
2018-04-13T07:07:42.356Z,52.77
2018-04-13T07:10:10.690Z,52.10
2018-04-13T07:12:38.251Z,50.90
2018-04-13T07:15:05.826Z,49.30
2018-04-13T07:17:33.362Z,50.10
2018-04-13T07:20:00.972Z,49.63
2018-04-13T07:22:28.517Z,46.17
2018-04-13T07:24:56.873Z,48.70
2018-04-13T07:27:24.400Z,47.03
2018-04-13T07:29:51.927Z,50.23
2018-04-13T07:32:19.502Z,47.27
2018-04-13T07:34:47.067Z,47.80
2018-04-13T07:37:14.601Z,47.37
2018-04-13T07:39:42.419Z,44.03
2018-04-13T07:42:10.652Z,48.17
2018-04-13T07:44:38.206Z,47.60
2018-04-13T07:47:06.506Z,49.90
2018-04-13T07:49:34.230Z,52.10
2018-04-13T07:52:01.705Z,53.47
2018-04-13T07:54:29.336Z,51.03
2018-04-13T07:56:56.878Z,51.40
2018-04-13T07:59:24.835Z,53.30
2018-04-13T08:01:53.266Z,48.43
2018-04-13T08:04:20.325Z,53.30
2018-04-13T08:06:48.648Z,52.77
2018-04-13T08:09:16.301Z,53.00
2018-04-13T08:11:43.873Z,49.00
2018-04-13T08:14:11.485Z,45.90
2018-04-13T08:16:39.028Z,45.50
2018-04-13T08:19:06.599Z,43.77
2018-04-13T08:21:34.135Z,49.63
2018-04-13T08:24:01.738Z,42.87
2018-04-13T08:26:29.244Z,43.23
2018-04-13T08:28:56.785Z,45.30
2018-04-13T08:31:24.335Z,40.77
2018-04-13T08:33:52.629Z,40.60
2018-04-13T08:36:20.920Z,39.43
2018-04-13T08:38:49.359Z,37.70
2018-04-13T08:41:17.581Z,36.40
2018-04-13T08:43:45.248Z,37.70
2018-04-13T08:46:13.600Z,38.80
2018-04-13T08:48:41.224Z,40.10
2018-04-13T08:51:08.696Z,39.57
2018-04-13T08:53:37.007Z,41.73
2018-04-13T08:56:04.531Z,42.10
2018-04-13T08:58:32.075Z,40.53
2018-04-13T09:00:59.630Z,40.17
2018-04-13T09:03:27.177Z,43.00
2018-04-13T09:05:54.698Z,44.10
2018-04-13T09:08:22.239Z,41.80
2018-04-13T09:10:49.750Z,46.57
2018-04-13T09:13:17.294Z,43.77
2018-04-13T09:15:44.824Z,40.30
2018-04-13T09:18:13.098Z,43.23
2018-04-13T09:20:40.639Z,38.97
2018-04-13T09:23:08.353Z,35.63
2018-04-13T09:25:35.890Z,30.23
2018-04-13T09:28:03.401Z,27.13
2018-04-13T09:30:31.710Z,27.27
2018-04-13T09:33:00.053Z,24.87
2018-04-13T09:35:27.613Z,25.00
2018-04-13T09:37:55.176Z,22.47
2018-04-13T09:40:23.239Z,20.37
2018-04-13T09:42:50.758Z,20.00
2018-04-13T09:45:18.357Z,21.27
2018-04-13T09:47:46.624Z,20.00
2018-04-13T09:50:14.161Z,20.67
2018-04-13T09:52:41.689Z,21.03
2018-04-13T09:55:10.006Z,20.43
2018-04-13T09:57:37.517Z,21.83
2018-04-13T10:00:05.070Z,19.70
2018-04-13T10:02:38.465Z,20.63
2018-04-13T10:05:11.743Z,18.93
2018-04-13T10:07:40.036Z,18.23
2018-04-13T10:10:08.338Z,16.83
2018-04-13T10:12:35.867Z,17.47
2018-04-13T10:15:03.425Z,17.80
2018-04-13T10:17:30.958Z,14.80
2018-04-13T10:19:58.511Z,15.93
2018-04-13T10:22:26.840Z,14.53
2018-04-13T10:24:54.394Z,13.73
2018-04-13T10:27:21.957Z,14.60
2018-04-13T10:29:49.465Z,14.20
2018-04-13T10:32:17.162Z,12.60
2018-04-13T10:34:44.703Z,13.63
2018-04-13T10:37:12.244Z,12.27
2018-04-13T10:39:39.789Z,11.40
2018-04-13T10:42:08.107Z,10.10
2018-04-13T10:44:35.672Z,9.80
2018-04-13T10:47:03.250Z,9.57
2018-04-13T10:49:30.832Z,10.17
2018-04-13T10:51:58.529Z,8.60
2018-04-13T10:54:26.125Z,10.23
2018-04-13T10:56:53.680Z,10.57
2018-04-13T10:59:21.208Z,10.77
2018-04-13T11:01:49.547Z,10.50
2018-04-13T11:04:17.058Z,9.73
2018-04-13T11:06:44.652Z,10.70
2018-04-13T11:09:12.544Z,8.37
2018-04-13T11:11:40.081Z,8.40
2018-04-13T11:14:08.390Z,8.83
2018-04-13T11:16:38.751Z,7.77
2018-04-13T11:19:06.271Z,7.70
2018-04-13T11:21:33.860Z,8.20
2018-04-13T11:24:02.160Z,8.23
2018-04-13T11:26:29.733Z,8.97
2018-04-13T11:28:57.315Z,7.60
2018-04-13T11:31:24.813Z,8.20
2018-04-13T11:33:52.332Z,8.13
2018-04-13T11:36:20.613Z,6.20
2018-04-13T11:38:48.177Z,6.70
2018-04-13T11:41:15.689Z,6.90
2018-04-13T11:43:43.362Z,6.87
2018-04-13T11:46:10.926Z,7.40
2018-04-13T11:48:38.586Z,6.70
2018-04-13T11:51:06.126Z,6.10
2018-04-13T11:53:33.749Z,6.80
2018-04-13T11:56:01.301Z,6.60
2018-04-13T11:58:29.612Z,5.67
2018-04-13T12:00:57.116Z,5.90
2018-04-13T12:03:25.277Z,6.20
2018-04-13T12:05:52.817Z,6.03
2018-04-13T12:08:21.193Z,5.40
2018-04-13T12:10:48.742Z,5.87
2018-04-13T12:13:16.323Z,6.57
2018-04-13T12:15:43.909Z,7.10
2018-04-13T12:18:11.462Z,6.17
2018-04-13T12:20:38.970Z,5.90
2018-04-13T12:23:07.316Z,6.60
2018-04-13T12:25:34.903Z,5.80
2018-04-13T12:28:02.435Z,5.90
2018-04-13T12:30:29.977Z,6.10
2018-04-13T12:32:58.385Z,6.50
2018-04-13T12:35:26.406Z,5.17
2018-04-13T12:37:53.935Z,5.23
2018-04-13T12:40:22.337Z,6.13
2018-04-13T12:42:49.840Z,4.97
2018-04-13T12:45:17.426Z,5.50
2018-04-13T12:47:44.901Z,4.80
2018-04-13T12:50:12.452Z,3.80
2018-04-13T12:52:39.951Z,3.70
2018-04-13T12:55:07.739Z,3.80
2018-04-13T12:57:35.011Z,4.10
2018-04-13T13:00:03.301Z,3.77
2018-04-13T13:02:31.565Z,4.30
2018-04-13T13:04:59.126Z,3.87
2018-04-13T13:07:26.628Z,4.80
2018-04-13T13:09:54.217Z,4.20
2018-04-13T13:12:22.490Z,3.90
2018-04-13T13:14:50.781Z,4.13
2018-04-13T13:17:19.044Z,4.17
2018-04-13T13:19:46.572Z,4.00
2018-04-13T13:22:14.097Z,4.40
2018-04-13T13:24:41.628Z,4.43
2018-04-13T13:27:09.177Z,4.20
2018-04-13T13:29:36.741Z,5.57
2018-04-13T13:32:04.304Z,5.10
2018-04-13T13:34:32.585Z,4.60
2018-04-13T13:37:00.186Z,4.63
2018-04-13T13:39:27.693Z,5.83
2018-04-13T13:41:55.235Z,5.37
2018-04-13T13:44:22.756Z,5.70
2018-04-13T13:46:51.804Z,6.03
2018-04-13T13:49:19.473Z,5.80
2018-04-13T13:51:47.034Z,5.60
2018-04-13T13:54:15.349Z,5.40
2018-04-13T13:56:42.864Z,5.67
2018-04-13T13:59:10.426Z,5.33
2018-04-13T14:01:37.948Z,6.10
2018-04-13T14:04:05.522Z,5.13
2018-04-13T14:06:33.849Z,5.10
2018-04-13T14:09:01.456Z,5.67
2018-04-13T14:11:29.043Z,5.40
2018-04-13T14:13:57.316Z,5.20
2018-04-13T14:16:24.941Z,6.13
2018-04-13T14:18:52.476Z,5.97
2018-04-13T14:21:20.772Z,6.60
2018-04-13T14:23:49.079Z,6.30
2018-04-13T14:26:16.581Z,7.20
2018-04-13T14:28:44.128Z,6.57
2018-04-13T14:31:11.695Z,6.90
2018-04-13T14:33:39.287Z,7.23
2018-04-13T14:36:06.801Z,7.03
2018-04-13T14:38:34.434Z,6.67
2018-04-13T14:41:01.933Z,7.30
2018-04-13T14:43:29.466Z,6.37
2018-04-13T14:45:57.044Z,7.00
2018-04-13T14:48:24.570Z,7.10
2018-04-13T14:50:52.889Z,7.87
2018-04-13T14:53:21.208Z,7.00
2018-04-13T14:55:48.730Z,8.50
2018-04-13T14:58:17.090Z,8.23
2018-04-13T15:00:44.627Z,7.80
2018-04-13T15:03:12.156Z,7.73
2018-04-13T15:05:39.695Z,8.50
2018-04-13T15:08:07.298Z,9.43
2018-04-13T15:10:34.883Z,9.07
2018-04-13T15:13:03.168Z,8.40
2018-04-13T15:15:31.474Z,9.90
2018-04-13T15:17:59.039Z,11.47
2018-04-13T15:20:26.594Z,10.50
2018-04-13T15:22:54.889Z,10.93
2018-04-13T15:25:22.430Z,11.33
2018-04-13T15:27:49.973Z,10.40
2018-04-13T15:30:17.554Z,10.93
2018-04-13T15:32:45.094Z,11.67
2018-04-13T15:35:12.637Z,12.87
2018-04-13T15:37:40.164Z,11.00
2018-04-13T15:40:07.693Z,11.00
2018-04-13T15:42:35.220Z,12.10
2018-04-13T15:45:02.762Z,11.27
2018-04-13T15:47:30.274Z,12.70
2018-04-13T15:49:57.804Z,11.90
2018-04-13T15:52:25.321Z,13.47
2018-04-13T15:54:52.844Z,15.33
2018-04-13T15:57:20.347Z,15.07
2018-04-13T15:59:47.870Z,18.43
2018-04-13T16:02:16.140Z,19.00
2018-04-13T16:04:43.661Z,17.37
2018-04-13T16:07:11.164Z,18.67
2018-04-13T16:09:38.697Z,18.97
2018-04-13T16:12:06.285Z,18.50
2018-04-13T16:14:34.012Z,17.93
2018-04-13T16:17:02.292Z,18.97
2018-04-13T16:19:29.817Z,18.60
2018-04-13T16:21:57.342Z,19.17
2018-04-13T16:24:25.673Z,17.60
2018-04-13T16:26:53.186Z,18.33
2018-04-13T16:29:20.698Z,20.03
2018-04-13T16:31:48.220Z,19.50
2018-04-13T16:34:15.733Z,19.73
2018-04-13T16:36:43.274Z,18.30
2018-04-13T16:39:10.779Z,17.07
2018-04-13T16:41:38.306Z,18.70
2018-04-13T16:44:05.825Z,20.30
2018-04-13T16:46:33.357Z,20.40
2018-04-13T16:49:00.857Z,20.57
2018-04-13T16:51:29.254Z,20.67
2018-04-13T16:53:56.802Z,20.53
2018-04-13T16:56:25.112Z,20.53
2018-04-13T16:58:52.626Z,19.40
2018-04-13T17:01:20.181Z,22.90
2018-04-13T17:03:47.690Z,21.90
2018-04-13T17:06:15.221Z,20.70
2018-04-13T17:08:42.731Z,20.73
2018-04-13T17:11:10.270Z,21.00
2018-04-13T17:13:37.816Z,19.77
2018-04-13T17:16:05.354Z,20.70
2018-04-13T17:18:32.878Z,20.83
2018-04-13T17:21:00.401Z,20.10
2018-04-13T17:23:28.668Z,23.33
2018-04-13T17:25:56.187Z,21.27
2018-04-13T17:28:23.748Z,22.90
2018-04-13T17:30:52.148Z,22.97
2018-04-13T17:33:19.719Z,21.00
2018-04-13T17:35:47.238Z,21.20
2018-04-13T17:38:14.767Z,23.03
2018-04-13T17:40:42.278Z,25.63
2018-04-13T17:43:09.853Z,22.40
2018-04-13T17:45:37.382Z,23.07
2018-04-13T17:48:04.905Z,23.00
2018-04-13T17:50:32.443Z,23.40
2018-04-13T17:53:00.040Z,23.40
2018-04-13T17:55:27.555Z,27.90
2018-04-13T17:57:55.880Z,27.43
2018-04-13T18:00:23.396Z,25.20
2018-04-13T18:02:50.946Z,23.67
2018-04-13T18:05:18.522Z,24.60
2018-04-13T18:07:46.054Z,25.33
2018-04-13T18:10:13.584Z,23.60
2018-04-13T18:12:41.923Z,26.43
2018-04-13T18:15:09.454Z,24.70
2018-04-13T18:17:37.762Z,24.87
2018-04-13T18:20:05.301Z,27.20
2018-04-13T18:22:32.876Z,26.33
2018-04-13T18:25:00.403Z,27.53
2018-04-13T18:27:27.983Z,25.97
2018-04-13T18:29:55.497Z,24.87
2018-04-13T18:32:23.822Z,26.43
2018-04-13T18:34:51.369Z,26.67
2018-04-13T18:37:18.903Z,27.80
2018-04-13T18:39:46.456Z,24.83
2018-04-13T18:42:14.014Z,26.33
2018-04-13T18:44:41.568Z,26.80
2018-04-13T18:47:09.108Z,27.60
2018-04-13T18:49:36.654Z,27.50
2018-04-13T18:52:04.276Z,25.80
2018-04-13T18:54:32.568Z,26.27
2018-04-13T18:57:00.855Z,29.40
2018-04-13T18:59:29.188Z,31.43
2018-04-13T19:01:56.737Z,28.97
2018-04-13T19:04:24.282Z,28.90
2018-04-13T19:06:52.588Z,26.03
2018-04-13T19:09:20.144Z,27.73
2018-04-13T19:11:47.670Z,29.17
2018-04-13T19:14:15.228Z,28.90
2018-04-13T19:16:42.771Z,31.83
2018-04-13T19:19:11.128Z,30.63
2018-04-13T19:21:38.662Z,28.97
2018-04-13T19:24:06.256Z,27.30
2018-04-13T19:26:33.804Z,30.23
2018-04-13T19:29:01.379Z,29.77
2018-04-13T19:31:28.964Z,27.33
2018-04-13T19:33:56.533Z,29.10
2018-04-13T19:36:24.088Z,27.30
2018-04-13T19:38:51.600Z,28.87
2018-04-13T19:41:19.154Z,27.50
2018-04-13T19:43:46.675Z,27.27
2018-04-13T19:46:14.246Z,25.93
2018-04-13T19:48:41.780Z,27.10
2018-04-13T19:51:09.348Z,25.37
2018-04-13T19:53:36.876Z,26.17
2018-04-13T19:56:04.478Z,25.87
2018-04-13T19:58:32.904Z,27.90
2018-04-13T20:01:01.289Z,26.37
2018-04-13T20:03:28.844Z,26.50
2018-04-13T20:05:56.548Z,25.40
2018-04-13T20:08:24.108Z,23.90
2018-04-13T20:10:51.661Z,26.43
2018-04-13T20:13:19.207Z,26.20
2018-04-13T20:15:46.769Z,25.37
2018-04-13T20:18:14.306Z,25.63
2018-04-13T20:20:41.872Z,26.70
2018-04-13T20:23:09.395Z,25.67
2018-04-13T20:25:36.940Z,25.80
2018-04-13T20:28:05.280Z,25.43
2018-04-13T20:30:32.856Z,25.57
2018-04-13T20:33:00.382Z,27.13
2018-04-13T20:35:27.948Z,26.83
2018-04-13T20:37:56.241Z,29.47
2018-04-13T20:40:24.578Z,28.23
2018-04-13T20:42:52.136Z,27.27
2018-04-13T20:45:19.661Z,31.20
2018-04-13T20:47:47.233Z,28.40
2018-04-13T20:50:14.759Z,28.50
2018-04-13T20:52:42.335Z,28.87
2018-04-13T20:55:09.877Z,30.80
2018-04-13T20:57:37.436Z,31.50
2018-04-13T21:00:05.740Z,31.57
2018-04-13T21:02:33.302Z,32.77
2018-04-13T21:05:00.904Z,33.47
2018-04-13T21:07:28.535Z,30.80
2018-04-13T21:09:56.039Z,35.60
2018-04-13T21:12:23.576Z,34.37
2018-04-13T21:14:51.873Z,33.17
2018-04-13T21:17:20.196Z,34.80
2018-04-13T21:19:47.715Z,34.70
2018-04-13T21:22:16.020Z,34.37
2018-04-13T21:24:44.393Z,34.70
2018-04-13T21:27:11.902Z,33.40
2018-04-13T21:29:39.425Z,34.27
2018-04-13T21:32:06.961Z,35.10
2018-04-13T21:34:34.487Z,33.30
2018-04-13T21:37:02.063Z,34.87
2018-04-13T21:39:30.376Z,34.47
2018-04-13T21:41:57.926Z,33.63
2018-04-13T21:44:26.249Z,36.40
2018-04-13T21:46:53.796Z,36.00
2018-04-13T21:49:22.117Z,33.17
2018-04-13T21:51:49.624Z,36.17
2018-04-13T21:54:17.167Z,36.60
2018-04-13T21:56:44.704Z,36.40
2018-04-13T21:59:12.230Z,34.23
2018-04-13T22:01:39.812Z,29.80
2018-04-13T22:04:07.342Z,35.93
2018-04-13T22:06:34.849Z,33.13
2018-04-13T22:09:02.446Z,33.90
2018-04-13T22:11:30.877Z,32.97
2018-04-13T22:16:59.887Z,35.73
2018-04-13T22:19:28.213Z,33.80
2018-04-13T22:21:56.617Z,41.77
2018-04-13T22:24:24.144Z,40.17
2018-04-13T22:26:52.423Z,36.47
2018-04-13T22:29:20.026Z,38.90
2018-04-13T22:31:47.568Z,37.30
2018-04-13T22:34:15.125Z,36.70
2018-04-13T22:36:42.677Z,33.90
2018-04-13T22:39:10.262Z,36.80
2018-04-13T22:41:37.797Z,35.90
2018-04-13T22:44:06.004Z,36.00
2018-04-13T22:46:33.525Z,34.90
2018-04-13T22:49:01.845Z,36.30
2018-04-13T22:51:29.510Z,39.90
2018-04-13T22:53:57.087Z,37.20
2018-04-13T22:56:24.629Z,38.97
2018-04-13T22:58:52.986Z,36.37
2018-04-13T23:01:20.536Z,41.00
2018-04-13T23:03:48.056Z,38.60
2018-04-13T23:06:25.928Z,36.17
2018-04-13T23:08:53.438Z,41.23
2018-04-13T23:11:22.089Z,40.50
2018-04-13T23:13:49.637Z,42.50
2018-04-13T23:16:17.177Z,36.77
2018-04-13T23:18:44.717Z,38.20
2018-04-13T23:21:12.273Z,38.20
2018-04-13T23:23:39.793Z,40.30
2018-04-13T23:26:07.320Z,37.97
2018-04-13T23:28:34.842Z,38.70
2018-04-13T23:31:03.145Z,39.87
2018-04-13T23:33:31.416Z,38.23
2018-04-13T23:35:58.950Z,40.63
2018-04-13T23:38:26.466Z,38.20
2018-04-13T23:40:54.760Z,36.30
2018-04-13T23:43:23.078Z,37.97
2018-04-13T23:45:50.604Z,40.17
2018-04-13T23:48:18.125Z,39.40
2018-04-13T23:50:45.673Z,38.90
2018-04-13T23:53:13.962Z,39.20
2018-04-13T23:55:42.261Z,43.47
2018-04-13T23:58:09.811Z,43.87
